Time;durP1;ratioP1;P1;durP2;ratioP2;P2;SDS_P1;SDS_P2;PMS_P1;PMS_P2;Temp;Humidity;BMP_temperature;BMP_pressure;BME280_temperature;BME280_humidity;BME280_pressure;Samples;Min_cycle;Max_cycle;Signal;HPM_P1;HPM_P2
2022/07/11 00:02:03;;;;;;;;;;;10.60;99.90;;;;;;5070868;28;19908;-74
2022/07/11 00:04:29;;;;;;;;;;;10.80;99.90;;;;;;5071789;28;20289;-74
2022/07/11 00:06:55;;;;;;;;;;;10.80;99.90;;;;;;5072107;28;19908;-74
2022/07/11 00:09:21;;;;;;;;;;;10.90;99.90;;;;;;5072488;28;20423;-74
2022/07/11 00:11:47;;;;;;;;;;;10.90;99.90;;;;;;5070555;28;19909;-75
2022/07/11 00:14:12;;;;;;;;;;;11.00;99.90;;;;;;5071839;28;19950;-80
2022/07/11 00:16:37;;;;;;;;;;;11.00;99.90;;;;;;5072154;28;19986;-74
2022/07/11 00:19:05;;;;;;;;;;;11.10;99.90;;;;;;5071693;28;19908;-76
2022/07/11 00:21:30;;;;;;;;;;;11.20;99.90;;;;;;5069867;28;20033;-81
2022/07/11 00:23:56;;;;;;;;;;;11.20;99.90;;;;;;5070605;28;19953;-74
2022/07/11 00:26:22;;;;;;;;;;;11.30;99.90;;;;;;5071989;28;20297;-74
2022/07/11 00:28:48;;;;;;;;;;;11.30;99.90;;;;;;5070585;28;19919;-74
2022/07/11 00:31:13;;;;;;;;;;;11.40;99.90;;;;;;5071661;28;19916;-83
2022/07/11 00:33:39;;;;;;;;;;;11.50;99.90;;;;;;5069826;28;20365;-76
2022/07/11 00:36:05;;;;;;;;;;;11.50;99.90;;;;;;5071627;28;20365;-81
2022/07/11 00:38:30;;;;;;;;;;;11.60;99.90;;;;;;5070577;28;19958;-74
2022/07/11 00:40:56;;;;;;;;;;;11.60;99.90;;;;;;5071795;28;19954;-74
2022/07/11 00:43:35;;;;;;;;;;;11.50;99.90;;;;;;5070895;28;19962;-74
2022/07/11 00:46:00;;;;;;;;;;;11.60;99.90;;;;;;5070436;28;19947;-74
2022/07/11 00:48:26;;;;;;;;;;;11.60;99.90;;;;;;5070175;28;19936;-74
2022/07/11 00:50:52;;;;;;;;;;;11.70;99.90;;;;;;5074694;28;20394;-74
2022/07/11 00:53:18;;;;;;;;;;;11.80;99.90;;;;;;5071589;28;19919;-74
2022/07/11 00:55:44;;;;;;;;;;;12.00;99.90;;;;;;5070440;28;19958;-76
2022/07/11 00:58:10;;;;;;;;;;;12.10;99.90;;;;;;5071163;28;20391;-75
2022/07/11 01:00:35;;;;;;;;;;;12.10;99.90;;;;;;5071550;28;19999;-81
2022/07/11 01:03:01;;;;;;;;;;;12.20;99.90;;;;;;5070873;28;20003;-74
2022/07/11 01:05:27;;;;;;;;;;;12.20;99.90;;;;;;5070718;28;20034;-74
2022/07/11 01:07:52;;;;;;;;;;;12.20;99.90;;;;;;5071739;28;19908;-74
2022/07/11 01:10:18;;;;;;;;;;;12.20;99.90;;;;;;5071343;28;20258;-76
2022/07/11 01:12:43;;;;;;;;;;;12.30;99.90;;;;;;5071248;28;19913;-76
2022/07/11 01:15:10;;;;;;;;;;;12.30;99.90;;;;;;5070912;28;20427;-75
2022/07/11 01:17:38;;;;;;;;;;;12.30;99.90;;;;;;5071684;28;20273;-75
2022/07/11 01:20:04;;;;;;;;;;;12.20;99.90;;;;;;5068568;28;20431;-79
2022/07/11 01:22:31;;;;;;;;;;;12.20;99.90;;;;;;5070601;28;20261;-75
2022/07/11 01:24:57;;;;;;;;;;;12.30;99.90;;;;;;5069358;28;19991;-75
2022/07/11 01:27:23;;;;;;;;;;;12.30;99.90;;;;;;5071339;28;20401;-75
2022/07/11 01:29:48;;;;;;;;;;;12.30;99.90;;;;;;5071077;28;19935;-77
2022/07/11 01:32:16;;;;;;;;;;;12.30;99.90;;;;;;5070614;28;19908;-75
2022/07/11 01:34:42;;;;;;;;;;;12.30;99.90;;;;;;5072506;28;19908;-82
2022/07/11 01:37:07;;;;;;;;;;;12.20;99.90;;;;;;5075202;28;19922;-75
2022/07/11 01:39:33;;;;;;;;;;;12.20;99.90;;;;;;5075532;28;19908;-75
2022/07/11 01:41:58;;;;;;;;;;;12.20;99.90;;;;;;5074763;28;20008;-78
2022/07/11 01:44:24;;;;;;;;;;;12.10;99.90;;;;;;5074711;28;19908;-75
2022/07/11 01:46:50;;;;;;;;;;;12.00;99.90;;;;;;5074807;28;20373;-75
2022/07/11 01:49:15;;;;;;;;;;;12.00;99.90;;;;;;5074438;28;20007;-75
2022/07/11 01:51:42;;;;;;;;;;;12.00;99.90;;;;;;5074274;28;19908;-77
2022/07/11 01:54:08;;;;;;;;;;;12.00;99.90;;;;;;5073055;28;19912;-75
2022/07/11 01:56:33;;;;;;;;;;;11.90;99.90;;;;;;5062772;28;19915;-75
2022/07/11 01:58:59;;;;;;;;;;;11.90;99.90;;;;;;5053972;28;20378;-77
2022/07/11 02:01:26;;;;;;;;;;;11.80;99.90;;;;;;5053392;28;20286;-79
2022/07/11 02:03:52;;;;;;;;;;;11.70;99.90;;;;;;5072675;28;19953;-75
2022/07/11 02:06:18;;;;;;;;;;;11.70;99.90;;;;;;5074248;28;19912;-75
2022/07/11 02:08:43;;;;;;;;;;;11.60;99.90;;;;;;5073046;28;19915;-76
2022/07/11 02:11:09;;;;;;;;;;;11.70;99.90;;;;;;5074855;28;19916;-83
2022/07/11 02:13:34;;;;;;;;;;;11.60;99.90;;;;;;5073329;28;19909;-75
2022/07/11 02:16:02;;;;;;;;;;;11.60;99.90;;;;;;5074354;28;19974;-76
2022/07/11 02:18:28;;;;;;;;;;;11.60;99.90;;;;;;5073931;28;19956;-77
2022/07/11 02:20:54;;;;;;;;;;;11.60;99.90;;;;;;5074086;28;19970;-78
2022/07/11 02:23:20;;;;;;;;;;;11.60;99.90;;;;;;5068993;28;19997;-76
2022/07/11 02:25:46;;;;;;;;;;;11.60;99.90;;;;;;5081362;28;19909;-79
2022/07/11 02:28:12;;;;;;;;;;;11.50;99.90;;;;;;5074210;28;19908;-81
2022/07/11 02:30:38;;;;;;;;;;;11.50;99.90;;;;;;5072810;28;19920;-75
2022/07/11 02:33:04;;;;;;;;;;;11.50;99.90;;;;;;5072499;28;19912;-75
2022/07/11 02:35:30;;;;;;;;;;;11.50;99.90;;;;;;5072709;28;20453;-79
2022/07/11 02:37:55;;;;;;;;;;;11.50;99.90;;;;;;5074083;28;20339;-75
2022/07/11 02:40:21;;;;;;;;;;;11.50;99.90;;;;;;5074151;28;20226;-76
2022/07/11 02:42:46;;;;;;;;;;;11.60;99.90;;;;;;5073491;28;19915;-75
2022/07/11 02:45:12;;;;;;;;;;;11.60;99.90;;;;;;5071559;28;19908;-79
2022/07/11 02:47:39;;;;;;;;;;;11.60;99.90;;;;;;5072227;28;20420;-75
2022/07/11 02:50:09;;;;;;;;;;;11.70;99.90;;;;;;5067027;28;19913;-76
2022/07/11 02:52:34;;;;;;;;;;;11.60;99.90;;;;;;5073352;28;19912;-76
2022/07/11 02:55:00;;;;;;;;;;;11.60;99.90;;;;;;5072926;28;19915;-80
2022/07/11 02:57:26;;;;;;;;;;;11.60;99.90;;;;;;5073562;28;20396;-74
2022/07/11 02:59:51;;;;;;;;;;;11.70;99.90;;;;;;5073658;28;20503;-74
2022/07/11 03:02:17;;;;;;;;;;;11.60;99.90;;;;;;5073079;28;19915;-75
2022/07/11 03:04:42;;;;;;;;;;;11.60;99.90;;;;;;5072923;28;20274;-80
2022/07/11 03:07:08;;;;;;;;;;;11.60;99.90;;;;;;5073428;28;19916;-74
2022/07/11 03:09:33;;;;;;;;;;;11.70;99.90;;;;;;5073451;28;20266;-74
2022/07/11 03:11:59;;;;;;;;;;;11.80;99.90;;;;;;5065086;28;19965;-77
2022/07/11 03:14:25;;;;;;;;;;;11.80;99.90;;;;;;5073273;28;19966;-74
2022/07/11 03:16:50;;;;;;;;;;;11.90;99.90;;;;;;5073094;28;19947;-80
2022/07/11 03:19:16;;;;;;;;;;;11.90;99.90;;;;;;5073066;28;19940;-74
2022/07/11 03:21:41;;;;;;;;;;;12.00;99.90;;;;;;5072840;28;19908;-74
2022/07/11 03:24:07;;;;;;;;;;;12.10;99.90;;;;;;5073322;28;20388;-78
2022/07/11 03:26:32;;;;;;;;;;;12.10;99.90;;;;;;5073474;28;19916;-75
2022/07/11 03:28:58;;;;;;;;;;;12.10;99.90;;;;;;5073580;28;19913;-74
2022/07/11 03:31:24;;;;;;;;;;;12.10;99.90;;;;;;5072660;28;19908;-75
2022/07/11 03:33:49;;;;;;;;;;;12.10;99.90;;;;;;5072289;28;20396;-75
2022/07/11 03:36:15;;;;;;;;;;;12.10;99.90;;;;;;5073240;28;19913;-79
2022/07/11 03:38:40;;;;;;;;;;;12.10;99.90;;;;;;5072939;28;19908;-74
2022/07/11 03:41:06;;;;;;;;;;;12.10;99.90;;;;;;5072861;28;19908;-74
2022/07/11 03:43:31;;;;;;;;;;;12.10;99.90;;;;;;5071895;28;19928;-76
2022/07/11 03:45:57;;;;;;;;;;;12.00;99.90;;;;;;5072746;28;20381;-74
2022/07/11 03:48:22;;;;;;;;;;;12.00;99.90;;;;;;5072723;28;19920;-74
2022/07/11 03:50:48;;;;;;;;;;;12.00;99.90;;;;;;5072426;28;19962;-75
2022/07/11 03:53:14;;;;;;;;;;;12.00;99.90;;;;;;5067704;28;19955;-75
2022/07/11 03:55:40;;;;;;;;;;;12.00;99.90;;;;;;5072425;28;19909;-80
2022/07/11 03:58:05;;;;;;;;;;;12.10;99.90;;;;;;5071221;28;19920;-81
2022/07/11 04:00:31;;;;;;;;;;;12.00;99.90;;;;;;5072539;28;19908;-74
2022/07/11 04:02:57;;;;;;;;;;;12.00;99.90;;;;;;5072048;28;19999;-75
2022/07/11 04:05:23;;;;;;;;;;;12.10;99.90;;;;;;5071711;28;20416;-75
2022/07/11 04:07:49;;;;;;;;;;;12.20;99.90;;;;;;5072435;28;19908;-75
2022/07/11 04:10:15;;;;;;;;;;;12.30;99.90;;;;;;5072362;28;19912;-76
2022/07/11 04:12:41;;;;;;;;;;;12.40;99.90;;;;;;5071808;28;19912;-75
2022/07/11 04:15:07;;;;;;;;;;;12.40;99.90;;;;;;5071611;28;20272;-75
2022/07/11 04:17:32;;;;;;;;;;;12.50;99.90;;;;;;5072327;28;19912;-76
2022/07/11 04:19:58;;;;;;;;;;;12.50;99.90;;;;;;5071906;28;19912;-81
2022/07/11 04:22:24;;;;;;;;;;;12.60;99.90;;;;;;5071753;28;20200;-75
2022/07/11 04:24:50;;;;;;;;;;;12.70;99.90;;;;;;5066546;28;20381;-75
2022/07/11 04:27:15;;;;;;;;;;;12.70;99.90;;;;;;5071634;28;19936;-75
2022/07/11 04:29:41;;;;;;;;;;;12.70;99.90;;;;;;5070648;28;19958;-76
2022/07/11 04:32:07;;;;;;;;;;;12.80;99.90;;;;;;5071525;28;20273;-78
2022/07/11 04:34:32;;;;;;;;;;;12.90;99.90;;;;;;5071102;28;19947;-79
2022/07/11 04:36:58;;;;;;;;;;;13.00;99.90;;;;;;5070136;28;19916;-75
2022/07/11 04:39:24;;;;;;;;;;;13.00;99.90;;;;;;5072223;28;20239;-75
2022/07/11 04:41:49;;;;;;;;;;;13.10;99.90;;;;;;5071165;28;19909;-76
2022/07/11 04:44:15;;;;;;;;;;;13.10;99.90;;;;;;5069769;28;20358;-75
2022/07/11 04:46:40;;;;;;;;;;;13.20;99.90;;;;;;5071628;28;20273;-74
2022/07/11 04:49:06;;;;;;;;;;;13.30;99.90;;;;;;5070965;28;20009;-74
2022/07/11 04:51:31;;;;;;;;;;;13.40;99.90;;;;;;5071079;28;19915;-75
2022/07/11 04:53:57;;;;;;;;;;;13.40;99.90;;;;;;5070868;28;19909;-78
2022/07/11 04:56:22;;;;;;;;;;;13.50;99.90;;;;;;5070809;28;19963;-75
2022/07/11 04:58:48;;;;;;;;;;;13.50;99.90;;;;;;5059800;28;19908;-74
2022/07/11 05:01:13;;;;;;;;;;;13.60;99.90;;;;;;5071041;28;19999;-82
2022/07/11 05:03:39;;;;;;;;;;;13.60;99.90;;;;;;5070689;28;20361;-79
2022/07/11 05:06:05;;;;;;;;;;;13.70;99.90;;;;;;5071170;28;19938;-77
2022/07/11 05:08:30;;;;;;;;;;;13.80;99.90;;;;;;5070929;28;19909;-75
2022/07/11 05:10:56;;;;;;;;;;;13.90;99.90;;;;;;5071152;28;19912;-75
2022/07/11 05:13:21;;;;;;;;;;;14.00;99.90;;;;;;5070251;28;19995;-77
2022/07/11 05:15:47;;;;;;;;;;;14.10;99.90;;;;;;5071331;28;19908;-75
2022/07/11 05:18:13;;;;;;;;;;;14.20;99.90;;;;;;5071095;28;19915;-75
2022/07/11 05:20:38;;;;;;;;;;;14.20;99.90;;;;;;5071399;28;19954;-75
2022/07/11 05:23:04;;;;;;;;;;;14.30;99.90;;;;;;5066610;28;19920;-78
2022/07/11 05:25:29;;;;;;;;;;;14.40;99.90;;;;;;5070353;28;19908;-75
2022/07/11 05:27:55;;;;;;;;;;;14.60;99.90;;;;;;5070553;28;19908;-75
2022/07/11 05:30:20;;;;;;;;;;;14.60;99.90;;;;;;5061101;28;19913;-77
2022/07/11 05:32:46;;;;;;;;;;;14.80;99.90;;;;;;5058092;28;19913;-79
2022/07/11 05:35:11;;;;;;;;;;;14.80;99.90;;;;;;5059850;28;19942;-80
2022/07/11 05:37:37;;;;;;;;;;;14.80;99.90;;;;;;5059309;28;19955;-75
2022/07/11 05:40:03;;;;;;;;;;;15.00;99.90;;;;;;5059628;28;19991;-75
2022/07/11 05:42:30;;;;;;;;;;;15.10;99.90;;;;;;5060835;28;19915;-75
2022/07/11 05:44:56;;;;;;;;;;;15.10;99.90;;;;;;5052201;28;19915;-75
2022/07/11 05:47:21;;;;;;;;;;;15.00;99.90;;;;;;5062384;28;20382;-75
2022/07/11 05:49:47;;;;;;;;;;;15.00;99.90;;;;;;5061833;28;19916;-76
2022/07/11 05:52:12;;;;;;;;;;;15.10;99.90;;;;;;5058851;28;20393;-81
2022/07/11 05:54:38;;;;;;;;;;;15.20;99.90;;;;;;5058749;28;19966;-75
2022/07/11 05:57:03;;;;;;;;;;;15.20;99.90;;;;;;5061955;28;20277;-75
2022/07/11 05:59:29;;;;;;;;;;;15.40;99.90;;;;;;5058082;28;20396;-75
2022/07/11 06:01:55;;;;;;;;;;;15.70;99.90;;;;;;5060393;28;19908;-80
2022/07/11 06:04:20;;;;;;;;;;;15.90;99.90;;;;;;5059040;28;19939;-79
2022/07/11 06:06:46;;;;;;;;;;;16.00;99.90;;;;;;5061876;28;19948;-75
2022/07/11 06:09:12;;;;;;;;;;;16.10;99.90;;;;;;5064925;28;19917;-73
2022/07/11 06:11:37;;;;;;;;;;;16.10;99.90;;;;;;5056959;28;20003;-74
2022/07/11 06:14:03;;;;;;;;;;;16.30;99.90;;;;;;5055666;28;19912;-78
2022/07/11 06:16:29;;;;;;;;;;;16.20;99.90;;;;;;5073644;28;19970;-73
2022/07/11 06:18:54;;;;;;;;;;;16.30;99.90;;;;;;5073282;28;19931;-75
2022/07/11 06:21:23;;;;;;;;;;;16.50;99.90;;;;;;5087908;28;20323;-75
2022/07/11 06:23:48;;;;;;;;;;;16.60;99.90;;;;;;5062993;28;19928;-75
2022/07/11 06:26:15;;;;;;;;;;;16.60;99.90;;;;;;5060657;28;20340;-83
2022/07/11 06:28:41;;;;;;;;;;;16.80;99.90;;;;;;5061181;28;19916;-75
2022/07/11 06:31:06;;;;;;;;;;;16.70;99.90;;;;;;5072777;28;19913;-79
2022/07/11 06:33:32;;;;;;;;;;;17.30;99.90;;;;;;5064696;28;19919;-76
2022/07/11 06:35:57;;;;;;;;;;;17.80;99.90;;;;;;5071463;28;19913;-82
2022/07/11 06:38:23;;;;;;;;;;;17.80;99.90;;;;;;5072853;28;19914;-74
2022/07/11 06:40:48;;;;;;;;;;;17.90;99.90;;;;;;5072929;28;19991;-77
2022/07/11 06:43:14;;;;;;;;;;;18.10;99.90;;;;;;5072144;28;20269;-77
2022/07/11 06:45:39;;;;;;;;;;;19.00;99.90;;;;;;5068033;28;19970;-75
2022/07/11 06:48:05;;;;;;;;;;;19.00;99.90;;;;;;5075646;28;19915;-75
2022/07/11 06:50:31;;;;;;;;;;;19.60;99.90;;;;;;5073250;28;19912;-74
2022/07/11 06:52:56;;;;;;;;;;;19.30;99.90;;;;;;5072674;28;19909;-76
2022/07/11 06:55:22;;;;;;;;;;;19.00;99.90;;;;;;5071123;28;20303;-78
2022/07/11 06:57:49;;;;;;;;;;;19.00;99.90;;;;;;5073144;28;20275;-75
2022/07/11 07:00:15;;;;;;;;;;;19.00;99.90;;;;;;5073110;28;19909;-77
2022/07/11 07:02:42;;;;;;;;;;;19.30;99.90;;;;;;5072150;28;19912;-75
2022/07/11 07:05:08;;;;;;;;;;;19.10;99.90;;;;;;5070580;28;20007;-75
2022/07/11 07:07:33;;;;;;;;;;;19.20;99.90;;;;;;5071880;28;20039;-75
2022/07/11 07:09:59;;;;;;;;;;;19.30;99.90;;;;;;5070863;28;19912;-75
2022/07/11 07:12:24;;;;;;;;;;;19.40;99.90;;;;;;5071921;28;19912;-77
2022/07/11 07:14:50;;;;;;;;;;;19.90;99.90;;;;;;5071244;28;19997;-75
2022/07/11 07:17:16;;;;;;;;;;;20.40;99.90;;;;;;5063575;28;19915;-75
2022/07/11 07:19:41;;;;;;;;;;;20.20;99.90;;;;;;5074137;28;19912;-75
2022/07/11 07:22:08;;;;;;;;;;;19.90;99.90;;;;;;5072043;28;19919;-75
2022/07/11 07:24:34;;;;;;;;;;;19.40;99.90;;;;;;5069342;28;20397;-75
2022/07/11 07:26:59;;;;;;;;;;;19.80;99.90;;;;;;5078289;28;19908;-75
2022/07/11 07:29:28;;;;;;;;;;;19.70;99.90;;;;;;5068283;28;20007;-76
2022/07/11 07:31:53;;;;;;;;;;;19.50;99.90;;;;;;5070606;28;19912;-75
2022/07/11 07:34:20;;;;;;;;;;;19.60;99.90;;;;;;5075358;28;20250;-78
2022/07/11 07:36:45;;;;;;;;;;;20.10;99.90;;;;;;5075137;28;19947;-75
2022/07/11 07:39:11;;;;;;;;;;;20.30;99.90;;;;;;5072404;28;19955;-78
2022/07/11 07:41:36;;;;;;;;;;;20.10;99.90;;;;;;5071382;28;19919;-75
2022/07/11 07:44:02;;;;;;;;;;;20.60;99.90;;;;;;5071357;28;19962;-75
2022/07/11 07:46:28;;;;;;;;;;;20.70;99.90;;;;;;5070088;28;19919;-75
2022/07/11 07:48:53;;;;;;;;;;;20.60;99.90;;;;;;5071636;28;19948;-75
2022/07/11 07:51:19;;;;;;;;;;;20.50;99.90;;;;;;5069662;28;19916;-78
2022/07/11 07:53:45;;;;;;;;;;;20.50;99.90;;;;;;5071752;28;19909;-75
2022/07/11 07:56:10;;;;;;;;;;;21.00;99.90;;;;;;5071717;28;19909;-75
2022/07/11 07:58:36;;;;;;;;;;;21.50;99.60;;;;;;5071656;28;19919;-75
2022/07/11 08:03:45;;;;;;;;;;;21.40;99.10;;;;;;5066231;28;19955;-78
2022/07/11 08:06:11;;;;;;;;;;;22.30;98.80;;;;;;5070215;28;19952;-75
2022/07/11 08:08:36;;;;;;;;;;;22.80;96.60;;;;;;5071839;28;19916;-75
2022/07/11 08:11:02;;;;;;;;;;;24.00;97.30;;;;;;5071861;28;19919;-76
2022/07/11 08:13:28;;;;;;;;;;;25.20;93.30;;;;;;5070349;28;19912;-78
2022/07/11 08:15:54;;;;;;;;;;;24.50;91.10;;;;;;5071460;28;20356;-79
2022/07/11 08:18:19;;;;;;;;;;;24.20;89.30;;;;;;5069576;28;20893;-75
2022/07/11 08:20:45;;;;;;;;;;;23.60;95.00;;;;;;5067715;28;19920;-76
2022/07/11 08:23:10;;;;;;;;;;;24.10;88.20;;;;;;5057313;28;19917;-76
2022/07/11 08:25:36;;;;;;;;;;;25.00;91.60;;;;;;5076870;28;20003;-82
2022/07/11 08:28:01;;;;;;;;;;;26.40;87.40;;;;;;5071455;28;19986;-76
2022/07/11 08:30:27;;;;;;;;;;;27.10;86.20;;;;;;5071878;28;19913;-76
2022/07/11 08:32:52;;;;;;;;;;;25.70;79.90;;;;;;5070016;28;20297;-80
2022/07/11 08:35:18;;;;;;;;;;;27.00;84.40;;;;;;5070165;28;20401;-75
2022/07/11 08:37:43;;;;;;;;;;;27.30;76.70;;;;;;5070467;28;20407;-75
2022/07/11 08:40:10;;;;;;;;;;;27.00;72.70;;;;;;5070846;28;20320;-76
2022/07/11 08:42:43;;;;;;;;;;;26.50;73.70;;;;;;5069627;28;20354;-76
2022/07/11 08:45:12;;;;;;;;;;;25.70;84.10;;;;;;5064104;28;20365;-76
2022/07/11 08:47:37;;;;;;;;;;;26.40;73.30;;;;;;5064393;28;19908;-76
2022/07/11 08:50:04;;;;;;;;;;;25.50;83.00;;;;;;5070374;28;20004;-75
2022/07/11 08:52:31;;;;;;;;;;;24.40;81.60;;;;;;5070305;28;19909;-76
2022/07/11 08:54:56;;;;;;;;;;;23.70;83.20;;;;;;5066615;28;19943;-78
2022/07/11 08:57:22;;;;;;;;;;;22.10;85.10;;;;;;5070391;28;19963;-76
2022/07/11 08:59:48;;;;;;;;;;;21.80;91.50;;;;;;5071009;28;20011;-75
2022/07/11 09:02:14;;;;;;;;;;;21.60;87.90;;;;;;5070459;28;19962;-76
2022/07/11 09:04:40;;;;;;;;;;;21.40;88.30;;;;;;5068719;28;19909;-76
2022/07/11 09:07:06;;;;;;;;;;;21.40;89.00;;;;;;5069442;28;20019;-76
2022/07/11 09:09:31;;;;;;;;;;;21.10;90.10;;;;;;5065360;28;20012;-80
2022/07/11 09:11:57;;;;;;;;;;;21.40;89.30;;;;;;5068529;28;19915;-75
2022/07/11 09:14:22;;;;;;;;;;;21.40;87.50;;;;;;5070064;28;19908;-75
2022/07/11 09:17:17;;;;;;;;;;;21.10;90.00;;;;;;5066257;28;19913;-76
2022/07/11 09:19:45;;;;;;;;;;;21.30;90.50;;;;;;5058687;28;19912;-76
2022/07/11 09:27:45;;;;;;;;;;;22.00;89.30;;;;;;5070865;28;19959;-79
2022/07/11 09:30:17;;;;;;;;;;;24.40;86.80;;;;;;5064493;28;19919;-77
2022/07/11 09:32:56;;;;;;;;;;;23.90;83.60;;;;;;5070699;28;20281;-76
2022/07/11 09:35:22;;;;;;;;;;;24.90;80.80;;;;;;5069968;28;19912;-77
2022/07/11 09:37:48;;;;;;;;;;;26.70;79.30;;;;;;5068713;28;19971;-80
2022/07/11 09:40:14;;;;;;;;;;;26.60;83.30;;;;;;5069473;28;19908;-76
2022/07/11 09:42:53;;;;;;;;;;;25.70;75.70;;;;;;5070061;28;20354;-79
2022/07/11 09:45:20;;;;;;;;;;;24.10;84.50;;;;;;5070029;28;20400;-76
2022/07/11 09:47:46;;;;;;;;;;;23.70;81.40;;;;;;5070532;28;20320;-78
2022/07/11 09:50:12;;;;;;;;;;;23.60;87.40;;;;;;5068730;28;19952;-83
2022/07/11 09:52:38;;;;;;;;;;;23.70;85.40;;;;;;5067215;28;19912;-80
2022/07/11 09:55:05;;;;;;;;;;;24.60;79.40;;;;;;5065571;28;19931;-76
2022/07/11 09:57:34;;;;;;;;;;;24.50;77.70;;;;;;5073301;28;19920;-77
2022/07/11 10:00:01;;;;;;;;;;;23.80;81.10;;;;;;5073401;28;20202;-76
2022/07/11 10:02:26;;;;;;;;;;;24.60;83.60;;;;;;5071560;28;20292;-76
2022/07/11 10:04:52;;;;;;;;;;;24.60;79.40;;;;;;5072640;28;20003;-77
2022/07/11 10:07:18;;;;;;;;;;;25.40;82.40;;;;;;5073093;28;19916;-77
2022/07/11 10:09:44;;;;;;;;;;;27.00;74.40;;;;;;5073396;28;20007;-77
2022/07/11 10:12:10;;;;;;;;;;;27.20;75.80;;;;;;5073852;28;19999;-76
2022/07/11 10:14:36;;;;;;;;;;;25.20;78.50;;;;;;5072179;28;20361;-76
2022/07/11 10:17:05;;;;;;;;;;;24.90;82.90;;;;;;5066233;28;19969;-76
2022/07/11 10:19:49;;;;;;;;;;;24.60;85.40;;;;;;5074682;28;19961;-76
2022/07/11 10:22:22;;;;;;;;;;;24.20;83.10;;;;;;5067403;28;19920;-76
2022/07/11 10:25:06;;;;;;;;;;;24.60;83.10;;;;;;5070357;28;19917;-76
2022/07/11 10:27:50;;;;;;;;;;;24.50;79.00;;;;;;5067619;28;19912;-76
2022/07/11 10:30:36;;;;;;;;;;;24.80;81.60;;;;;;5073408;28;20376;-76
2022/07/11 10:33:05;;;;;;;;;;;24.90;80.30;;;;;;5073217;28;19912;-75
2022/07/11 10:35:31;;;;;;;;;;;24.20;75.50;;;;;;5073316;28;20293;-76
2022/07/11 10:37:58;;;;;;;;;;;23.50;79.80;;;;;;5072224;28;20301;-76
2022/07/11 10:40:40;;;;;;;;;;;23.30;82.90;;;;;;5072256;28;19908;-76
2022/07/11 10:43:05;;;;;;;;;;;23.80;82.50;;;;;;5071884;28;20342;-76
2022/07/11 10:45:48;;;;;;;;;;;23.70;79.10;;;;;;5073054;28;19959;-76
2022/07/11 10:48:13;;;;;;;;;;;23.70;81.90;;;;;;5073173;28;19909;-76
2022/07/11 10:50:40;;;;;;;;;;;25.20;81.50;;;;;;5071237;28;19939;-76
2022/07/11 10:53:09;;;;;;;;;;;25.80;77.80;;;;;;5072143;28;19962;-77
2022/07/11 10:56:13;;;;;;;;;;;25.40;77.80;;;;;;5072271;28;20007;-76
2022/07/11 10:58:45;;;;;;;;;;;27.00;79.50;;;;;;5067130;28;19912;-76
2022/07/11 11:01:11;;;;;;;;;;;25.00;78.50;;;;;;5073375;28;19997;-75
2022/07/11 11:03:37;;;;;;;;;;;24.50;80.20;;;;;;5071578;28;19915;-76
2022/07/11 11:06:03;;;;;;;;;;;25.40;80.60;;;;;;5071686;28;19951;-77
2022/07/11 11:08:40;;;;;;;;;;;24.70;76.50;;;;;;5069988;28;20388;-76
2022/07/11 11:11:07;;;;;;;;;;;24.50;80.30;;;;;;5065931;28;20102;-76
2022/07/11 11:13:35;;;;;;;;;;;26.30;75.70;;;;;;5070838;28;19908;-77
2022/07/11 11:16:02;;;;;;;;;;;26.30;72.40;;;;;;5072865;28;19978;-77
2022/07/11 11:18:34;;;;;;;;;;;26.40;78.60;;;;;;5069010;28;20281;-77
2022/07/11 11:20:59;;;;;;;;;;;26.30;72.80;;;;;;5071483;28;19909;-76
2022/07/11 11:23:26;;;;;;;;;;;25.80;74.50;;;;;;5068790;28;19931;-77
2022/07/11 11:25:52;;;;;;;;;;;25.30;77.70;;;;;;5072019;28;19925;-77
2022/07/11 11:28:21;;;;;;;;;;;25.80;72.50;;;;;;5072116;28;19913;-76
2022/07/11 11:30:53;;;;;;;;;;;27.30;68.30;;;;;;5071532;28;19913;-76
2022/07/11 11:33:19;;;;;;;;;;;26.30;70.00;;;;;;5067978;28;19966;-76
2022/07/11 11:35:45;;;;;;;;;;;24.50;74.90;;;;;;5071175;28;19916;-76
2022/07/11 11:38:11;;;;;;;;;;;23.70;77.80;;;;;;5070591;28;19909;-76
2022/07/11 11:40:45;;;;;;;;;;;23.80;79.20;;;;;;5071242;28;20004;-76
2022/07/11 11:43:17;;;;;;;;;;;23.50;80.40;;;;;;5071390;28;19919;-76
2022/07/11 11:45:47;;;;;;;;;;;24.20;80.10;;;;;;5072440;28;19934;-77
2022/07/11 11:48:25;;;;;;;;;;;24.20;81.00;;;;;;5071806;28;19909;-76
2022/07/11 11:50:51;;;;;;;;;;;24.60;81.80;;;;;;5071192;28;19912;-76
2022/07/11 11:53:16;;;;;;;;;;;25.50;77.60;;;;;;5071143;28;19939;-76
2022/07/11 11:55:42;;;;;;;;;;;26.40;75.40;;;;;;5072095;28;19909;-77
2022/07/11 11:58:07;;;;;;;;;;;24.60;76.60;;;;;;5072106;28;20094;-76
2022/07/11 12:00:33;;;;;;;;;;;24.50;81.10;;;;;;5070623;28;20285;-76
2022/07/11 12:02:58;;;;;;;;;;;24.60;80.00;;;;;;5069051;28;19924;-76
2022/07/11 12:05:24;;;;;;;;;;;24.40;80.50;;;;;;5067517;28;19940;-76
2022/07/11 12:07:49;;;;;;;;;;;25.00;77.10;;;;;;5065564;28;20405;-76
2022/07/11 12:10:15;;;;;;;;;;;25.50;80.80;;;;;;5071415;28;19924;-76
2022/07/11 12:12:47;;;;;;;;;;;24.70;73.10;;;;;;5071541;28;19908;-76
2022/07/11 12:15:29;;;;;;;;;;;25.00;78.70;;;;;;5071344;28;20250;-76
2022/07/11 12:18:02;;;;;;;;;;;25.80;78.00;;;;;;5066125;28;19935;-76
2022/07/11 12:20:33;;;;;;;;;;;24.10;78.60;;;;;;5070449;28;19991;-76
2022/07/11 12:22:59;;;;;;;;;;;24.40;75.90;;;;;;5065012;28;20007;-76
2022/07/11 12:25:24;;;;;;;;;;;25.10;75.20;;;;;;5071344;28;20345;-75
2022/07/11 12:27:55;;;;;;;;;;;24.60;77.80;;;;;;5057588;28;19909;-75
2022/07/11 12:30:22;;;;;;;;;;;24.70;77.10;;;;;;5064963;28;19912;-76
2022/07/11 12:33:01;;;;;;;;;;;24.50;73.50;;;;;;5071051;28;19913;-75
2022/07/11 12:35:27;;;;;;;;;;;26.20;77.90;;;;;;5065769;28;19908;-76
2022/07/11 12:37:53;;;;;;;;;;;26.80;73.60;;;;;;5071679;28;19908;-76
2022/07/11 12:40:19;;;;;;;;;;;28.20;69.70;;;;;;5072009;28;20448;-76
2022/07/11 12:42:48;;;;;;;;;;;30.20;64.90;;;;;;5074407;28;20019;-76
2022/07/11 12:45:15;;;;;;;;;;;30.40;61.60;;;;;;5071658;28;19909;-76
2022/07/11 12:47:42;;;;;;;;;;;31.10;66.40;;;;;;5071416;28;20372;-76
2022/07/11 12:50:16;;;;;;;;;;;30.40;64.00;;;;;;5071007;28;19912;-76
2022/07/11 12:52:47;;;;;;;;;;;32.50;60.90;;;;;;5070534;28;19995;-77
2022/07/11 12:55:39;;;;;;;;;;;31.20;56.80;;;;;;5070929;28;20013;-76
2022/07/11 12:58:17;;;;;;;;;;;28.00;65.10;;;;;;5067893;28;19943;-76
2022/07/11 13:01:02;;;;;;;;;;;26.60;72.30;;;;;;5065400;28;20350;-76
2022/07/11 13:03:29;;;;;;;;;;;25.10;76.00;;;;;;5067653;28;19909;-76
2022/07/11 13:05:56;;;;;;;;;;;25.00;77.50;;;;;;5069049;28;19912;-76
2022/07/11 13:11:06;;;;;;;;;;;24.60;76.80;;;;;;5070718;28;19919;-76
2022/07/11 13:13:32;;;;;;;;;;;28.50;67.30;;;;;;5070037;28;19912;-76
2022/07/11 13:15:57;;;;;;;;;;;27.30;67.20;;;;;;5069951;28;19950;-76
2022/07/11 13:18:23;;;;;;;;;;;25.70;71.40;;;;;;5068655;28;19908;-76
2022/07/11 13:20:49;;;;;;;;;;;25.10;75.00;;;;;;5070343;28;19916;-76
2022/07/11 13:23:15;;;;;;;;;;;25.60;74.00;;;;;;5066197;28;20535;-76
2022/07/11 13:25:42;;;;;;;;;;;26.00;68.90;;;;;;5068091;28;20358;-76
2022/07/11 13:28:07;;;;;;;;;;;28.70;63.70;;;;;;5070917;28;19909;-76
2022/07/11 13:30:33;;;;;;;;;;;27.80;68.90;;;;;;5069373;28;19962;-76
2022/07/11 13:32:59;;;;;;;;;;;27.90;71.10;;;;;;5070008;28;19939;-77
2022/07/11 13:35:25;;;;;;;;;;;31.40;61.60;;;;;;5070376;28;19912;-76
2022/07/11 13:37:52;;;;;;;;;;;28.00;65.00;;;;;;5071296;28;19939;-76
2022/07/11 13:40:19;;;;;;;;;;;25.60;71.00;;;;;;5070984;28;20258;-76
2022/07/11 13:42:45;;;;;;;;;;;25.20;73.20;;;;;;5070090;28;19999;-76
2022/07/11 13:45:11;;;;;;;;;;;25.30;75.40;;;;;;5070527;28;19912;-76
2022/07/11 13:47:37;;;;;;;;;;;24.80;75.20;;;;;;5070677;28;20377;-75
2022/07/11 13:50:02;;;;;;;;;;;24.20;73.90;;;;;;5070491;28;19999;-75
2022/07/11 13:52:28;;;;;;;;;;;24.00;77.80;;;;;;5069900;28;19916;-76
2022/07/11 13:54:54;;;;;;;;;;;23.90;76.30;;;;;;5070096;28;19913;-76
2022/07/11 13:57:20;;;;;;;;;;;23.70;77.80;;;;;;5070340;28;20274;-76
2022/07/11 13:59:46;;;;;;;;;;;23.50;80.00;;;;;;5070885;28;19909;-76
2022/07/11 14:02:11;;;;;;;;;;;23.50;77.50;;;;;;5064260;28;19978;-76
2022/07/11 14:04:37;;;;;;;;;;;23.30;78.90;;;;;;5070043;28;19909;-76
2022/07/11 14:07:02;;;;;;;;;;;23.60;78.80;;;;;;5070268;28;19909;-76
2022/07/11 14:09:28;;;;;;;;;;;23.80;78.40;;;;;;5070581;28;19912;-76
2022/07/11 14:11:54;;;;;;;;;;;23.70;77.60;;;;;;5069978;28;20393;-76
2022/07/11 14:14:20;;;;;;;;;;;23.60;80.00;;;;;;5070241;28;20304;-76
2022/07/11 14:16:45;;;;;;;;;;;23.50;77.80;;;;;;5067260;28;20453;-76
2022/07/11 14:19:11;;;;;;;;;;;23.50;79.60;;;;;;5064605;28;19909;-76
2022/07/11 14:21:37;;;;;;;;;;;23.80;81.40;;;;;;5069683;28;19912;-76
2022/07/11 14:24:03;;;;;;;;;;;24.00;78.90;;;;;;5066539;28;20263;-76
2022/07/11 14:26:29;;;;;;;;;;;24.20;78.10;;;;;;5070087;28;19908;-76